sensor_id;sensor_type;location;lat;lon;timestamp;P1;durP1;ratioP1;P2;durP2;ratioP2
32200;SDS011;18701;45.588;5.288;2023-04-25T00:00:47;22.40;;;5.65;;
32200;SDS011;18701;45.588;5.288;2023-04-25T00:03:12;21.05;;;5.28;;
32200;SDS011;18701;45.588;5.288;2023-04-25T00:05:38;16.25;;;5.07;;
32200;SDS011;18701;45.588;5.288;2023-04-25T00:08:04;20.48;;;5.38;;
32200;SDS011;18701;45.588;5.288;2023-04-25T00:10:30;16.15;;;4.82;;
32200;SDS011;18701;45.588;5.288;2023-04-25T00:12:56;18.45;;;3.83;;
32200;SDS011;18701;45.588;5.288;2023-04-25T00:15:22;15.75;;;4.45;;
32200;SDS011;18701;45.588;5.288;2023-04-25T00:17:49;13.57;;;4.63;;
32200;SDS011;18701;45.588;5.288;2023-04-25T00:20:17;13.23;;;4.43;;
32200;SDS011;18701;45.588;5.288;2023-04-25T00:22:43;16.27;;;4.90;;
32200;SDS011;18701;45.588;5.288;2023-04-25T00:25:08;16.00;;;4.88;;
32200;SDS011;18701;45.588;5.288;2023-04-25T00:27:34;13.25;;;4.68;;
32200;SDS011;18701;45.588;5.288;2023-04-25T00:30:00;9.60;;;3.70;;
32200;SDS011;18701;45.588;5.288;2023-04-25T00:32:25;15.05;;;4.72;;
32200;SDS011;18701;45.588;5.288;2023-04-25T00:34:51;20.02;;;4.65;;
32200;SDS011;18701;45.588;5.288;2023-04-25T00:37:17;17.35;;;4.63;;
32200;SDS011;18701;45.588;5.288;2023-04-25T00:39:43;13.75;;;4.63;;
32200;SDS011;18701;45.588;5.288;2023-04-25T00:42:09;12.60;;;4.15;;
32200;SDS011;18701;45.588;5.288;2023-04-25T00:44:36;16.67;;;4.40;;
32200;SDS011;18701;45.588;5.288;2023-04-25T00:47:02;11.73;;;4.35;;
32200;SDS011;18701;45.588;5.288;2023-04-25T00:49:29;16.80;;;3.97;;
32200;SDS011;18701;45.588;5.288;2023-04-25T00:51:55;14.50;;;3.65;;
32200;SDS011;18701;45.588;5.288;2023-04-25T00:54:21;9.88;;;3.35;;
32200;SDS011;18701;45.588;5.288;2023-04-25T00:56:47;15.75;;;3.63;;
32200;SDS011;18701;45.588;5.288;2023-04-25T00:59:15;7.95;;;3.13;;
32200;SDS011;18701;45.588;5.288;2023-04-25T01:01:41;12.38;;;3.90;;
32200;SDS011;18701;45.588;5.288;2023-04-25T01:04:07;9.90;;;3.47;;
32200;SDS011;18701;45.588;5.288;2023-04-25T01:06:33;12.77;;;3.70;;
32200;SDS011;18701;45.588;5.288;2023-04-25T01:08:59;15.65;;;3.45;;
32200;SDS011;18701;45.588;5.288;2023-04-25T01:11:25;11.77;;;3.35;;
32200;SDS011;18701;45.588;5.288;2023-04-25T01:13:50;13.63;;;4.00;;
32200;SDS011;18701;45.588;5.288;2023-04-25T01:16:16;10.23;;;3.30;;
32200;SDS011;18701;45.588;5.288;2023-04-25T01:18:42;10.73;;;3.17;;
32200;SDS011;18701;45.588;5.288;2023-04-25T01:21:09;8.10;;;3.35;;
32200;SDS011;18701;45.588;5.288;2023-04-25T01:23:36;7.93;;;3.00;;
32200;SDS011;18701;45.588;5.288;2023-04-25T01:26:08;10.43;;;3.60;;
32200;SDS011;18701;45.588;5.288;2023-04-25T01:28:35;7.85;;;3.10;;
32200;SDS011;18701;45.588;5.288;2023-04-25T01:31:02;8.45;;;3.10;;
32200;SDS011;18701;45.588;5.288;2023-04-25T01:33:28;17.20;;;3.60;;
32200;SDS011;18701;45.588;5.288;2023-04-25T01:35:54;12.32;;;3.05;;
32200;SDS011;18701;45.588;5.288;2023-04-25T01:38:20;10.43;;;3.33;;
32200;SDS011;18701;45.588;5.288;2023-04-25T01:40:46;9.82;;;2.58;;
32200;SDS011;18701;45.588;5.288;2023-04-25T01:43:13;9.63;;;2.22;;
32200;SDS011;18701;45.588;5.288;2023-04-25T01:45:40;11.70;;;3.38;;
32200;SDS011;18701;45.588;5.288;2023-04-25T01:48:07;10.02;;;3.15;;
32200;SDS011;18701;45.588;5.288;2023-04-25T01:50:33;10.65;;;2.50;;
32200;SDS011;18701;45.588;5.288;2023-04-25T01:52:59;15.63;;;3.65;;
32200;SDS011;18701;45.588;5.288;2023-04-25T01:55:26;12.25;;;3.55;;
32200;SDS011;18701;45.588;5.288;2023-04-25T01:57:52;21.90;;;4.15;;
32200;SDS011;18701;45.588;5.288;2023-04-25T02:00:21;17.70;;;5.15;;
32200;SDS011;18701;45.588;5.288;2023-04-25T02:02:47;10.77;;;3.85;;
32200;SDS011;18701;45.588;5.288;2023-04-25T02:05:13;12.75;;;4.22;;
32200;SDS011;18701;45.588;5.288;2023-04-25T02:07:39;13.70;;;5.05;;
32200;SDS011;18701;45.588;5.288;2023-04-25T02:10:04;9.57;;;3.22;;
32200;SDS011;18701;45.588;5.288;2023-04-25T02:12:30;8.13;;;3.05;;
32200;SDS011;18701;45.588;5.288;2023-04-25T02:14:56;6.40;;;2.80;;
32200;SDS011;18701;45.588;5.288;2023-04-25T02:17:22;11.15;;;2.88;;
32200;SDS011;18701;45.588;5.288;2023-04-25T02:19:48;8.05;;;1.73;;
32200;SDS011;18701;45.588;5.288;2023-04-25T02:22:13;10.13;;;2.40;;
32200;SDS011;18701;45.588;5.288;2023-04-25T02:24:39;4.38;;;1.92;;
32200;SDS011;18701;45.588;5.288;2023-04-25T02:27:05;7.25;;;1.88;;
32200;SDS011;18701;45.588;5.288;2023-04-25T02:29:31;5.30;;;2.10;;
32200;SDS011;18701;45.588;5.288;2023-04-25T02:31:56;8.73;;;2.30;;
32200;SDS011;18701;45.588;5.288;2023-04-25T02:34:22;6.80;;;2.10;;
32200;SDS011;18701;45.588;5.288;2023-04-25T02:36:48;8.18;;;2.40;;
32200;SDS011;18701;45.588;5.288;2023-04-25T02:39:15;7.63;;;2.20;;
32200;SDS011;18701;45.588;5.288;2023-04-25T02:41:41;7.13;;;2.17;;
32200;SDS011;18701;45.588;5.288;2023-04-25T02:44:07;6.63;;;2.45;;
32200;SDS011;18701;45.588;5.288;2023-04-25T02:46:33;11.57;;;2.00;;
32200;SDS011;18701;45.588;5.288;2023-04-25T02:48:58;5.22;;;1.80;;
32200;SDS011;18701;45.588;5.288;2023-04-25T02:51:24;7.43;;;2.42;;
32200;SDS011;18701;45.588;5.288;2023-04-25T02:53:50;6.15;;;2.00;;
32200;SDS011;18701;45.588;5.288;2023-04-25T02:56:15;11.55;;;2.38;;
32200;SDS011;18701;45.588;5.288;2023-04-25T02:58:41;7.95;;;2.38;;
32200;SDS011;18701;45.588;5.288;2023-04-25T03:01:06;3.47;;;2.05;;
32200;SDS011;18701;45.588;5.288;2023-04-25T03:03:32;10.20;;;2.42;;
32200;SDS011;18701;45.588;5.288;2023-04-25T03:05:57;6.50;;;2.40;;
32200;SDS011;18701;45.588;5.288;2023-04-25T03:08:23;8.43;;;2.20;;
32200;SDS011;18701;45.588;5.288;2023-04-25T03:10:50;10.32;;;2.10;;
32200;SDS011;18701;45.588;5.288;2023-04-25T03:13:17;9.40;;;2.15;;
32200;SDS011;18701;45.588;5.288;2023-04-25T03:15:43;10.05;;;2.30;;
32200;SDS011;18701;45.588;5.288;2023-04-25T03:18:08;5.78;;;2.33;;
32200;SDS011;18701;45.588;5.288;2023-04-25T03:20:34;10.85;;;2.55;;
32200;SDS011;18701;45.588;5.288;2023-04-25T03:22:59;5.38;;;2.28;;
32200;SDS011;18701;45.588;5.288;2023-04-25T03:25:25;5.82;;;2.10;;
32200;SDS011;18701;45.588;5.288;2023-04-25T03:27:51;11.00;;;2.20;;
32200;SDS011;18701;45.588;5.288;2023-04-25T03:30:16;8.90;;;2.20;;
32200;SDS011;18701;45.588;5.288;2023-04-25T03:32:42;6.88;;;1.98;;
32200;SDS011;18701;45.588;5.288;2023-04-25T03:35:07;5.32;;;2.35;;
32200;SDS011;18701;45.588;5.288;2023-04-25T03:37:33;6.57;;;2.42;;
32200;SDS011;18701;45.588;5.288;2023-04-25T03:39:59;7.82;;;2.42;;
32200;SDS011;18701;45.588;5.288;2023-04-25T03:42:24;13.30;;;2.50;;
32200;SDS011;18701;45.588;5.288;2023-04-25T03:44:51;9.00;;;2.47;;
32200;SDS011;18701;45.588;5.288;2023-04-25T03:47:16;8.48;;;2.28;;
32200;SDS011;18701;45.588;5.288;2023-04-25T03:49:42;10.48;;;2.60;;
32200;SDS011;18701;45.588;5.288;2023-04-25T03:52:08;9.50;;;2.45;;
32200;SDS011;18701;45.588;5.288;2023-04-25T03:54:33;7.15;;;1.85;;
32200;SDS011;18701;45.588;5.288;2023-04-25T03:56:59;8.00;;;2.38;;
32200;SDS011;18701;45.588;5.288;2023-04-25T03:59:25;6.97;;;2.42;;
32200;SDS011;18701;45.588;5.288;2023-04-25T04:01:51;4.80;;;1.90;;
32200;SDS011;18701;45.588;5.288;2023-04-25T04:04:17;4.72;;;2.33;;
32200;SDS011;18701;45.588;5.288;2023-04-25T04:06:43;15.90;;;2.60;;
32200;SDS011;18701;45.588;5.288;2023-04-25T04:09:08;9.88;;;2.25;;
32200;SDS011;18701;45.588;5.288;2023-04-25T04:11:36;8.07;;;2.33;;
32200;SDS011;18701;45.588;5.288;2023-04-25T04:14:03;7.50;;;2.60;;
32200;SDS011;18701;45.588;5.288;2023-04-25T04:16:32;5.32;;;1.77;;
32200;SDS011;18701;45.588;5.288;2023-04-25T04:19:01;8.85;;;2.03;;
32200;SDS011;18701;45.588;5.288;2023-04-25T04:21:27;6.78;;;2.30;;
32200;SDS011;18701;45.588;5.288;2023-04-25T04:23:52;9.88;;;2.55;;
32200;SDS011;18701;45.588;5.288;2023-04-25T04:26:19;7.53;;;2.03;;
32200;SDS011;18701;45.588;5.288;2023-04-25T04:28:48;8.65;;;2.45;;
32200;SDS011;18701;45.588;5.288;2023-04-25T04:31:15;10.35;;;2.95;;
32200;SDS011;18701;45.588;5.288;2023-04-25T04:33:41;6.10;;;2.38;;
32200;SDS011;18701;45.588;5.288;2023-04-25T04:36:07;7.40;;;2.40;;
32200;SDS011;18701;45.588;5.288;2023-04-25T04:38:33;7.55;;;2.00;;
32200;SDS011;18701;45.588;5.288;2023-04-25T04:40:59;9.43;;;2.47;;
32200;SDS011;18701;45.588;5.288;2023-04-25T04:43:25;8.85;;;2.47;;
32200;SDS011;18701;45.588;5.288;2023-04-25T04:45:51;7.70;;;2.53;;
32200;SDS011;18701;45.588;5.288;2023-04-25T04:48:17;10.20;;;2.30;;
32200;SDS011;18701;45.588;5.288;2023-04-25T04:50:43;6.85;;;2.40;;
32200;SDS011;18701;45.588;5.288;2023-04-25T04:53:10;13.70;;;2.95;;
32200;SDS011;18701;45.588;5.288;2023-04-25T04:55:36;7.28;;;2.13;;
32200;SDS011;18701;45.588;5.288;2023-04-25T04:58:01;7.55;;;2.22;;
32200;SDS011;18701;45.588;5.288;2023-04-25T05:00:27;5.97;;;2.25;;
32200;SDS011;18701;45.588;5.288;2023-04-25T05:02:54;10.57;;;2.10;;
32200;SDS011;18701;45.588;5.288;2023-04-25T05:05:20;5.65;;;2.15;;
32200;SDS011;18701;45.588;5.288;2023-04-25T05:07:46;11.95;;;2.67;;
32200;SDS011;18701;45.588;5.288;2023-04-25T05:10:11;9.52;;;3.05;;
32200;SDS011;18701;45.588;5.288;2023-04-25T05:12:37;10.25;;;2.35;;
32200;SDS011;18701;45.588;5.288;2023-04-25T05:15:03;7.47;;;2.38;;
32200;SDS011;18701;45.588;5.288;2023-04-25T05:17:29;10.30;;;1.95;;
32200;SDS011;18701;45.588;5.288;2023-04-25T05:19:54;9.48;;;2.60;;
32200;SDS011;18701;45.588;5.288;2023-04-25T05:22:20;5.60;;;2.20;;
32200;SDS011;18701;45.588;5.288;2023-04-25T05:24:46;7.78;;;2.45;;
32200;SDS011;18701;45.588;5.288;2023-04-25T05:27:13;10.38;;;2.90;;
32200;SDS011;18701;45.588;5.288;2023-04-25T05:29:38;9.23;;;2.30;;
32200;SDS011;18701;45.588;5.288;2023-04-25T05:32:05;15.43;;;3.33;;
32200;SDS011;18701;45.588;5.288;2023-04-25T05:34:30;11.38;;;2.20;;
32200;SDS011;18701;45.588;5.288;2023-04-25T05:36:56;6.13;;;2.55;;
32200;SDS011;18701;45.588;5.288;2023-04-25T05:39:22;8.02;;;2.45;;
32200;SDS011;18701;45.588;5.288;2023-04-25T05:41:47;20.02;;;2.88;;
32200;SDS011;18701;45.588;5.288;2023-04-25T05:44:13;9.18;;;2.40;;
32200;SDS011;18701;45.588;5.288;2023-04-25T05:46:40;8.13;;;1.98;;
32200;SDS011;18701;45.588;5.288;2023-04-25T05:49:06;7.97;;;2.15;;
32200;SDS011;18701;45.588;5.288;2023-04-25T05:51:32;16.75;;;2.47;;
32200;SDS011;18701;45.588;5.288;2023-04-25T05:53:57;8.80;;;2.13;;
32200;SDS011;18701;45.588;5.288;2023-04-25T05:56:23;10.90;;;2.47;;
32200;SDS011;18701;45.588;5.288;2023-04-25T05:58:48;7.15;;;2.05;;
32200;SDS011;18701;45.588;5.288;2023-04-25T06:01:14;13.13;;;2.50;;
32200;SDS011;18701;45.588;5.288;2023-04-25T06:03:40;8.70;;;2.20;;
32200;SDS011;18701;45.588;5.288;2023-04-25T06:06:08;8.63;;;2.17;;
32200;SDS011;18701;45.588;5.288;2023-04-25T06:08:34;7.25;;;2.17;;
32200;SDS011;18701;45.588;5.288;2023-04-25T06:10:59;12.73;;;2.38;;
32200;SDS011;18701;45.588;5.288;2023-04-25T06:13:25;11.15;;;2.30;;
32200;SDS011;18701;45.588;5.288;2023-04-25T06:15:51;11.93;;;2.50;;
32200;SDS011;18701;45.588;5.288;2023-04-25T06:18:17;12.23;;;2.70;;
32200;SDS011;18701;45.588;5.288;2023-04-25T06:20:42;7.18;;;2.15;;
32200;SDS011;18701;45.588;5.288;2023-04-25T06:23:08;10.68;;;2.45;;
32200;SDS011;18701;45.588;5.288;2023-04-25T06:25:33;11.90;;;2.30;;
32200;SDS011;18701;45.588;5.288;2023-04-25T06:27:59;10.15;;;2.58;;
32200;SDS011;18701;45.588;5.288;2023-04-25T06:30:24;15.20;;;2.45;;
32200;SDS011;18701;45.588;5.288;2023-04-25T06:32:51;10.20;;;2.90;;
32200;SDS011;18701;45.588;5.288;2023-04-25T06:35:18;8.18;;;3.05;;
32200;SDS011;18701;45.588;5.288;2023-04-25T06:37:44;14.50;;;3.35;;
32200;SDS011;18701;45.588;5.288;2023-04-25T06:40:09;12.48;;;2.78;;
32200;SDS011;18701;45.588;5.288;2023-04-25T06:42:35;8.68;;;3.03;;
32200;SDS011;18701;45.588;5.288;2023-04-25T06:45:01;13.95;;;3.08;;
32200;SDS011;18701;45.588;5.288;2023-04-25T06:47:27;7.10;;;2.20;;
32200;SDS011;18701;45.588;5.288;2023-04-25T06:49:53;9.40;;;2.90;;
32200;SDS011;18701;45.588;5.288;2023-04-25T06:52:18;8.52;;;2.67;;
32200;SDS011;18701;45.588;5.288;2023-04-25T06:54:44;8.43;;;2.90;;
32200;SDS011;18701;45.588;5.288;2023-04-25T06:57:10;12.05;;;3.10;;
32200;SDS011;18701;45.588;5.288;2023-04-25T06:59:36;8.77;;;2.90;;
32200;SDS011;18701;45.588;5.288;2023-04-25T07:02:01;9.02;;;3.10;;
32200;SDS011;18701;45.588;5.288;2023-04-25T07:04:27;12.10;;;2.47;;
32200;SDS011;18701;45.588;5.288;2023-04-25T07:06:52;10.93;;;2.70;;
32200;SDS011;18701;45.588;5.288;2023-04-25T07:09:20;7.93;;;2.47;;
32200;SDS011;18701;45.588;5.288;2023-04-25T07:11:46;9.60;;;2.50;;
32200;SDS011;18701;45.588;5.288;2023-04-25T07:14:12;11.43;;;2.92;;
32200;SDS011;18701;45.588;5.288;2023-04-25T07:16:37;9.23;;;2.95;;
32200;SDS011;18701;45.588;5.288;2023-04-25T07:19:03;9.75;;;2.88;;
32200;SDS011;18701;45.588;5.288;2023-04-25T07:21:29;8.60;;;2.55;;
32200;SDS011;18701;45.588;5.288;2023-04-25T07:23:56;15.68;;;3.05;;
32200;SDS011;18701;45.588;5.288;2023-04-25T07:26:22;11.40;;;2.70;;
32200;SDS011;18701;45.588;5.288;2023-04-25T07:28:47;12.68;;;2.72;;
32200;SDS011;18701;45.588;5.288;2023-04-25T07:31:15;11.32;;;2.97;;
32200;SDS011;18701;45.588;5.288;2023-04-25T07:33:43;10.98;;;2.28;;
32200;SDS011;18701;45.588;5.288;2023-04-25T07:36:10;7.35;;;3.03;;
32200;SDS011;18701;45.588;5.288;2023-04-25T07:38:35;11.82;;;2.90;;
32200;SDS011;18701;45.588;5.288;2023-04-25T07:41:01;7.40;;;2.72;;
32200;SDS011;18701;45.588;5.288;2023-04-25T07:43:27;10.27;;;2.72;;
32200;SDS011;18701;45.588;5.288;2023-04-25T07:45:52;13.40;;;2.75;;
32200;SDS011;18701;45.588;5.288;2023-04-25T07:48:21;7.13;;;2.50;;
32200;SDS011;18701;45.588;5.288;2023-04-25T07:50:47;12.38;;;2.88;;
32200;SDS011;18701;45.588;5.288;2023-04-25T07:53:12;10.25;;;2.92;;
32200;SDS011;18701;45.588;5.288;2023-04-25T07:55:38;12.32;;;3.25;;
32200;SDS011;18701;45.588;5.288;2023-04-25T07:58:05;10.57;;;2.50;;
32200;SDS011;18701;45.588;5.288;2023-04-25T08:00:31;13.23;;;3.05;;
32200;SDS011;18701;45.588;5.288;2023-04-25T08:02:57;10.15;;;2.85;;
32200;SDS011;18701;45.588;5.288;2023-04-25T08:05:22;8.52;;;2.95;;
32200;SDS011;18701;45.588;5.288;2023-04-25T08:07:48;11.50;;;3.05;;
32200;SDS011;18701;45.588;5.288;2023-04-25T08:10:15;8.23;;;2.25;;
32200;SDS011;18701;45.588;5.288;2023-04-25T08:12:40;6.95;;;2.45;;
32200;SDS011;18701;45.588;5.288;2023-04-25T08:15:06;8.88;;;2.38;;
32200;SDS011;18701;45.588;5.288;2023-04-25T08:17:32;8.27;;;2.90;;
32200;SDS011;18701;45.588;5.288;2023-04-25T08:19:58;7.38;;;2.13;;
32200;SDS011;18701;45.588;5.288;2023-04-25T08:22:23;9.00;;;2.60;;
32200;SDS011;18701;45.588;5.288;2023-04-25T08:24:49;4.93;;;1.92;;
32200;SDS011;18701;45.588;5.288;2023-04-25T08:27:14;8.82;;;1.83;;
32200;SDS011;18701;45.588;5.288;2023-04-25T08:29:41;9.65;;;1.90;;
32200;SDS011;18701;45.588;5.288;2023-04-25T08:32:07;7.82;;;1.67;;
32200;SDS011;18701;45.588;5.288;2023-04-25T08:34:33;11.10;;;1.90;;
32200;SDS011;18701;45.588;5.288;2023-04-25T08:36:58;7.45;;;2.10;;
32200;SDS011;18701;45.588;5.288;2023-04-25T08:39:24;4.28;;;1.67;;
32200;SDS011;18701;45.588;5.288;2023-04-25T08:41:50;9.70;;;2.38;;
32200;SDS011;18701;45.588;5.288;2023-04-25T08:44:15;4.65;;;2.35;;
32200;SDS011;18701;45.588;5.288;2023-04-25T08:46:41;5.30;;;1.67;;
32200;SDS011;18701;45.588;5.288;2023-04-25T08:49:10;4.78;;;2.25;;
32200;SDS011;18701;45.588;5.288;2023-04-25T08:51:44;8.25;;;2.00;;
32200;SDS011;18701;45.588;5.288;2023-04-25T08:54:15;8.38;;;1.98;;
32200;SDS011;18701;45.588;5.288;2023-04-25T08:56:44;6.72;;;2.20;;
32200;SDS011;18701;45.588;5.288;2023-04-25T08:59:12;14.82;;;2.10;;
32200;SDS011;18701;45.588;5.288;2023-04-25T09:01:38;8.63;;;1.55;;
32200;SDS011;18701;45.588;5.288;2023-04-25T09:04:04;5.55;;;1.30;;
32200;SDS011;18701;45.588;5.288;2023-04-25T09:06:30;11.10;;;1.73;;
32200;SDS011;18701;45.588;5.288;2023-04-25T09:09:03;3.22;;;1.38;;
32200;SDS011;18701;45.588;5.288;2023-04-25T09:11:30;3.77;;;1.47;;
32200;SDS011;18701;45.588;5.288;2023-04-25T09:19:27;4.68;;;0.93;;
32200;SDS011;18701;45.588;5.288;2023-04-25T09:22:00;5.03;;;1.10;;
32200;SDS011;18701;45.588;5.288;2023-04-25T09:27:08;10.90;;;1.17;;
32200;SDS011;18701;45.588;5.288;2023-04-25T09:29:36;4.88;;;0.93;;
32200;SDS011;18701;45.588;5.288;2023-04-25T09:32:10;6.32;;;0.90;;
32200;SDS011;18701;45.588;5.288;2023-04-25T09:34:56;5.95;;;1.10;;
32200;SDS011;18701;45.588;5.288;2023-04-25T09:37:23;5.72;;;0.73;;
32200;SDS011;18701;45.588;5.288;2023-04-25T09:39:54;3.70;;;1.20;;
32200;SDS011;18701;45.588;5.288;2023-04-25T09:42:22;7.13;;;0.73;;
32200;SDS011;18701;45.588;5.288;2023-04-25T09:44:49;5.45;;;1.17;;
32200;SDS011;18701;45.588;5.288;2023-04-25T09:47:17;8.40;;;0.90;;
32200;SDS011;18701;45.588;5.288;2023-04-25T09:49:43;3.70;;;0.68;;
32200;SDS011;18701;45.588;5.288;2023-04-25T09:52:09;6.35;;;0.70;;
32200;SDS011;18701;45.588;5.288;2023-04-25T09:54:45;7.00;;;1.13;;
32200;SDS011;18701;45.588;5.288;2023-04-25T09:59:53;3.67;;;0.75;;
32200;SDS011;18701;45.588;5.288;2023-04-25T10:02:24;9.45;;;0.73;;
32200;SDS011;18701;45.588;5.288;2023-04-25T10:04:51;4.82;;;0.52;;
32200;SDS011;18701;45.588;5.288;2023-04-25T10:07:19;4.55;;;0.60;;
32200;SDS011;18701;45.588;5.288;2023-04-25T10:09:50;8.43;;;1.00;;
32200;SDS011;18701;45.588;5.288;2023-04-25T10:12:24;5.53;;;1.00;;
32200;SDS011;18701;45.588;5.288;2023-04-25T10:14:50;7.18;;;1.17;;
32200;SDS011;18701;45.588;5.288;2023-04-25T10:17:17;6.30;;;1.40;;
32200;SDS011;18701;45.588;5.288;2023-04-25T10:19:44;9.85;;;1.52;;
32200;SDS011;18701;45.588;5.288;2023-04-25T10:22:29;5.18;;;1.42;;
32200;SDS011;18701;45.588;5.288;2023-04-25T10:25:03;4.60;;;1.52;;
32200;SDS011;18701;45.588;5.288;2023-04-25T10:27:30;5.45;;;1.17;;
32200;SDS011;18701;45.588;5.288;2023-04-25T10:32:32;5.15;;;0.80;;
32200;SDS011;18701;45.588;5.288;2023-04-25T10:35:04;3.78;;;0.77;;
32200;SDS011;18701;45.588;5.288;2023-04-25T10:40:32;8.20;;;0.73;;
32200;SDS011;18701;45.588;5.288;2023-04-25T10:46:01;4.30;;;0.70;;
32200;SDS011;18701;45.588;5.288;2023-04-25T10:48:31;11.50;;;1.00;;
32200;SDS011;18701;45.588;5.288;2023-04-25T10:51:15;7.10;;;0.60;;
32200;SDS011;18701;45.588;5.288;2023-04-25T10:54:02;4.50;;;0.80;;
32200;SDS011;18701;45.588;5.288;2023-04-25T11:01:41;4.03;;;0.90;;
32200;SDS011;18701;45.588;5.288;2023-04-25T11:10:26;3.80;;;0.80;;
32200;SDS011;18701;45.588;5.288;2023-04-25T11:12:53;3.83;;;0.75;;
32200;SDS011;18701;45.588;5.288;2023-04-25T11:15:19;4.90;;;1.27;;
32200;SDS011;18701;45.588;5.288;2023-04-25T11:17:45;4.30;;;1.20;;
32200;SDS011;18701;45.588;5.288;2023-04-25T11:20:11;4.57;;;1.27;;
32200;SDS011;18701;45.588;5.288;2023-04-25T11:22:40;5.90;;;0.70;;
32200;SDS011;18701;45.588;5.288;2023-04-25T11:25:07;4.32;;;1.17;;
32200;SDS011;18701;45.588;5.288;2023-04-25T11:27:34;3.58;;;0.40;;
32200;SDS011;18701;45.588;5.288;2023-04-25T11:30:23;2.88;;;0.40;;
32200;SDS011;18701;45.588;5.288;2023-04-25T11:32:50;5.40;;;0.47;;
32200;SDS011;18701;45.588;5.288;2023-04-25T11:35:17;2.63;;;0.40;;
32200;SDS011;18701;45.588;5.288;2023-04-25T11:37:44;3.92;;;0.70;;
32200;SDS011;18701;45.588;5.288;2023-04-25T11:40:10;7.68;;;1.33;;
32200;SDS011;18701;45.588;5.288;2023-04-25T11:42:39;3.50;;;0.65;;
32200;SDS011;18701;45.588;5.288;2023-04-25T11:45:09;3.70;;;0.60;;
32200;SDS011;18701;45.588;5.288;2023-04-25T11:47:35;4.13;;;0.50;;
32200;SDS011;18701;45.588;5.288;2023-04-25T11:50:02;4.85;;;0.40;;
32200;SDS011;18701;45.588;5.288;2023-04-25T11:52:36;4.72;;;0.45;;
32200;SDS011;18701;45.588;5.288;2023-04-25T11:55:04;3.65;;;0.77;;
32200;SDS011;18701;45.588;5.288;2023-04-25T11:57:40;3.08;;;0.50;;
32200;SDS011;18701;45.588;5.288;2023-04-25T12:00:10;6.38;;;0.50;;
32200;SDS011;18701;45.588;5.288;2023-04-25T12:02:42;4.90;;;0.47;;
32200;SDS011;18701;45.588;5.288;2023-04-25T12:05:09;3.03;;;0.50;;
32200;SDS011;18701;45.588;5.288;2023-04-25T12:07:36;3.97;;;0.30;;
32200;SDS011;18701;45.588;5.288;2023-04-25T12:10:09;10.60;;;0.55;;
32200;SDS011;18701;45.588;5.288;2023-04-25T12:12:37;2.78;;;0.57;;
32200;SDS011;18701;45.588;5.288;2023-04-25T12:15:15;4.93;;;0.80;;
32200;SDS011;18701;45.588;5.288;2023-04-25T12:17:49;4.43;;;0.57;;
32200;SDS011;18701;45.588;5.288;2023-04-25T12:20:17;6.05;;;0.47;;
32200;SDS011;18701;45.588;5.288;2023-04-25T12:22:45;3.05;;;0.40;;
32200;SDS011;18701;45.588;5.288;2023-04-25T12:25:12;3.28;;;0.50;;
32200;SDS011;18701;45.588;5.288;2023-04-25T12:27:39;4.70;;;0.43;;
32200;SDS011;18701;45.588;5.288;2023-04-25T12:30:08;4.18;;;0.50;;
32200;SDS011;18701;45.588;5.288;2023-04-25T12:32:34;3.10;;;0.55;;
32200;SDS011;18701;45.588;5.288;2023-04-25T12:35:00;2.85;;;0.50;;
32200;SDS011;18701;45.588;5.288;2023-04-25T12:37:26;8.05;;;0.50;;
32200;SDS011;18701;45.588;5.288;2023-04-25T12:39:53;2.85;;;0.38;;
32200;SDS011;18701;45.588;5.288;2023-04-25T12:42:19;2.72;;;0.50;;
32200;SDS011;18701;45.588;5.288;2023-04-25T12:44:44;2.45;;;0.50;;
32200;SDS011;18701;45.588;5.288;2023-04-25T12:47:11;1.35;;;0.40;;
32200;SDS011;18701;45.588;5.288;2023-04-25T12:49:36;3.42;;;0.47;;
32200;SDS011;18701;45.588;5.288;2023-04-25T12:52:02;12.93;;;0.63;;
32200;SDS011;18701;45.588;5.288;2023-04-25T12:54:28;4.45;;;0.60;;
32200;SDS011;18701;45.588;5.288;2023-04-25T12:56:53;6.97;;;0.40;;
32200;SDS011;18701;45.588;5.288;2023-04-25T12:59:19;6.32;;;0.38;;
32200;SDS011;18701;45.588;5.288;2023-04-25T13:01:46;5.60;;;0.50;;
32200;SDS011;18701;45.588;5.288;2023-04-25T13:04:12;3.92;;;0.70;;
32200;SDS011;18701;45.588;5.288;2023-04-25T13:06:37;6.18;;;1.02;;
32200;SDS011;18701;45.588;5.288;2023-04-25T13:09:03;1.75;;;0.47;;
32200;SDS011;18701;45.588;5.288;2023-04-25T13:11:29;2.60;;;0.47;;
32200;SDS011;18701;45.588;5.288;2023-04-25T13:13:55;4.40;;;0.55;;
32200;SDS011;18701;45.588;5.288;2023-04-25T13:16:20;3.40;;;0.70;;
32200;SDS011;18701;45.588;5.288;2023-04-25T13:18:47;5.38;;;0.70;;
32200;SDS011;18701;45.588;5.288;2023-04-25T13:21:13;3.80;;;0.77;;
32200;SDS011;18701;45.588;5.288;2023-04-25T13:23:38;5.20;;;0.60;;
32200;SDS011;18701;45.588;5.288;2023-04-25T13:26:05;5.28;;;0.80;;
32200;SDS011;18701;45.588;5.288;2023-04-25T13:28:31;6.30;;;0.40;;
32200;SDS011;18701;45.588;5.288;2023-04-25T13:30:56;3.15;;;0.68;;
32200;SDS011;18701;45.588;5.288;2023-04-25T13:33:22;5.30;;;0.68;;
32200;SDS011;18701;45.588;5.288;2023-04-25T13:35:48;3.88;;;0.73;;
32200;SDS011;18701;45.588;5.288;2023-04-25T13:38:23;6.53;;;0.60;;
32200;SDS011;18701;45.588;5.288;2023-04-25T13:40:52;2.42;;;0.63;;
32200;SDS011;18701;45.588;5.288;2023-04-25T13:43:19;4.05;;;0.98;;
32200;SDS011;18701;45.588;5.288;2023-04-25T13:45:46;2.30;;;0.30;;
32200;SDS011;18701;45.588;5.288;2023-04-25T13:48:13;7.10;;;0.63;;
32200;SDS011;18701;45.588;5.288;2023-04-25T13:50:38;2.45;;;0.77;;
32200;SDS011;18701;45.588;5.288;2023-04-25T13:53:04;5.82;;;0.40;;
32200;SDS011;18701;45.588;5.288;2023-04-25T13:55:30;3.80;;;0.35;;
32200;SDS011;18701;45.588;5.288;2023-04-25T13:57:56;3.85;;;0.32;;
32200;SDS011;18701;45.588;5.288;2023-04-25T14:00:21;3.25;;;0.47;;
32200;SDS011;18701;45.588;5.288;2023-04-25T14:02:47;2.92;;;0.82;;
32200;SDS011;18701;45.588;5.288;2023-04-25T14:05:13;5.00;;;0.52;;
32200;SDS011;18701;45.588;5.288;2023-04-25T14:07:39;2.13;;;0.40;;
32200;SDS011;18701;45.588;5.288;2023-04-25T14:10:04;1.52;;;0.40;;
32200;SDS011;18701;45.588;5.288;2023-04-25T14:12:30;3.28;;;0.30;;
32200;SDS011;18701;45.588;5.288;2023-04-25T14:14:57;3.33;;;0.50;;
32200;SDS011;18701;45.588;5.288;2023-04-25T14:17:22;2.65;;;0.50;;
32200;SDS011;18701;45.588;5.288;2023-04-25T14:19:49;3.13;;;0.43;;
32200;SDS011;18701;45.588;5.288;2023-04-25T14:22:15;3.95;;;0.40;;
32200;SDS011;18701;45.588;5.288;2023-04-25T14:24:41;3.67;;;0.30;;
32200;SDS011;18701;45.588;5.288;2023-04-25T14:27:07;3.00;;;0.75;;
32200;SDS011;18701;45.588;5.288;2023-04-25T14:29:33;3.45;;;0.43;;
32200;SDS011;18701;45.588;5.288;2023-04-25T14:31:59;2.63;;;0.30;;
32200;SDS011;18701;45.588;5.288;2023-04-25T14:34:25;3.45;;;0.50;;
32200;SDS011;18701;45.588;5.288;2023-04-25T14:36:51;6.20;;;0.57;;
32200;SDS011;18701;45.588;5.288;2023-04-25T14:39:17;2.75;;;0.32;;
32200;SDS011;18701;45.588;5.288;2023-04-25T14:41:43;7.35;;;0.40;;
32200;SDS011;18701;45.588;5.288;2023-04-25T14:44:09;2.03;;;0.22;;
32200;SDS011;18701;45.588;5.288;2023-04-25T14:46:34;1.90;;;0.30;;
32200;SDS011;18701;45.588;5.288;2023-04-25T14:49:01;5.47;;;0.40;;
32200;SDS011;18701;45.588;5.288;2023-04-25T14:51:27;3.17;;;0.47;;
32200;SDS011;18701;45.588;5.288;2023-04-25T14:53:52;2.25;;;0.40;;
32200;SDS011;18701;45.588;5.288;2023-04-25T14:56:18;0.60;;;0.20;;
32200;SDS011;18701;45.588;5.288;2023-04-25T14:58:44;2.80;;;0.22;;
32200;SDS011;18701;45.588;5.288;2023-04-25T15:01:10;1.90;;;0.25;;
32200;SDS011;18701;45.588;5.288;2023-04-25T15:03:37;4.22;;;0.40;;
32200;SDS011;18701;45.588;5.288;2023-04-25T15:06:04;3.58;;;0.38;;
32200;SDS011;18701;45.588;5.288;2023-04-25T15:08:31;3.20;;;0.30;;
32200;SDS011;18701;45.588;5.288;2023-04-25T15:10:57;6.68;;;0.60;;